sensor_id;sensor_type;location;lat;lon;timestamp;pressure;altitude;pressure_sealevel;temperature;humidity
23253;BME280;11795;47.054;15.408;2022-12-13T00:00:43;97030;;;-4.3;67.4
23253;BME280;11795;47.054;15.408;2022-12-13T00:02:44;97030;;;-4.3;67.4
23253;BME280;11795;47.054;15.408;2022-12-13T00:04:43;97030;;;-4.4;67.8
23253;BME280;11795;47.054;15.408;2022-12-13T00:06:44;97030;;;-4.3;68.0
23253;BME280;11795;47.054;15.408;2022-12-13T00:08:43;97030;;;-4.5;67.8
23253;BME280;11795;47.054;15.408;2022-12-13T00:10:43;97030;;;-4.6;68.1
23253;BME280;11795;47.054;15.408;2022-12-13T00:12:43;97020;;;-4.5;68.0
23253;BME280;11795;47.054;15.408;2022-12-13T00:14:43;97020;;;-4.6;68.4
23253;BME280;11795;47.054;15.408;2022-12-13T00:16:45;97020;;;-4.6;68.5
23253;BME280;11795;47.054;15.408;2022-12-13T00:18:46;97020;;;-4.7;68.5
23253;BME280;11795;47.054;15.408;2022-12-13T00:20:43;97020;;;-4.7;68.7
23253;BME280;11795;47.054;15.408;2022-12-13T00:22:43;97020;;;-4.6;68.2
23253;BME280;11795;47.054;15.408;2022-12-13T00:24:43;97020;;;-4.7;68.5
23253;BME280;11795;47.054;15.408;2022-12-13T00:26:43;97020;;;-4.6;68.5
23253;BME280;11795;47.054;15.408;2022-12-13T00:28:43;97010;;;-4.7;68.6
23253;BME280;11795;47.054;15.408;2022-12-13T00:30:43;97020;;;-4.7;68.7
23253;BME280;11795;47.054;15.408;2022-12-13T00:32:43;97020;;;-4.7;68.7
23253;BME280;11795;47.054;15.408;2022-12-13T00:34:43;97020;;;-4.7;68.7
23253;BME280;11795;47.054;15.408;2022-12-13T00:36:43;97020;;;-4.6;68.7
23253;BME280;11795;47.054;15.408;2022-12-13T00:38:43;97020;;;-4.8;68.9
23253;BME280;11795;47.054;15.408;2022-12-13T00:40:43;97020;;;-4.8;69.2
23253;BME280;11795;47.054;15.408;2022-12-13T00:42:43;97020;;;-4.8;69.1
23253;BME280;11795;47.054;15.408;2022-12-13T00:44:43;97020;;;-4.8;69.3
23253;BME280;11795;47.054;15.408;2022-12-13T00:46:43;97020;;;-4.7;69.3
23253;BME280;11795;47.054;15.408;2022-12-13T00:48:47;97020;;;-4.8;69.5
23253;BME280;11795;47.054;15.408;2022-12-13T00:50:43;97020;;;-4.9;69.7
23253;BME280;11795;47.054;15.408;2022-12-13T00:52:43;97020;;;-4.8;69.4
23253;BME280;11795;47.054;15.408;2022-12-13T00:54:43;97020;;;-4.8;69.5
23253;BME280;11795;47.054;15.408;2022-12-13T00:56:43;97020;;;-4.8;69.8
23253;BME280;11795;47.054;15.408;2022-12-13T00:58:43;97020;;;-4.8;69.6
23253;BME280;11795;47.054;15.408;2022-12-13T01:00:43;97020;;;-4.9;69.8
23253;BME280;11795;47.054;15.408;2022-12-13T01:02:43;97020;;;-4.8;69.8
23253;BME280;11795;47.054;15.408;2022-12-13T01:04:43;97030;;;-4.9;70.0
23253;BME280;11795;47.054;15.408;2022-12-13T01:06:44;97030;;;-4.8;70.2
23253;BME280;11795;47.054;15.408;2022-12-13T01:08:43;97030;;;-4.9;70.1
23253;BME280;11795;47.054;15.408;2022-12-13T01:10:44;97030;;;-4.9;70.3
23253;BME280;11795;47.054;15.408;2022-12-13T01:12:43;97040;;;-4.9;70.5
23253;BME280;11795;47.054;15.408;2022-12-13T01:14:43;97040;;;-5.1;70.8
23253;BME280;11795;47.054;15.408;2022-12-13T01:16:43;97040;;;-5.0;70.9
23253;BME280;11795;47.054;15.408;2022-12-13T01:18:43;97040;;;-5.1;70.8
23253;BME280;11795;47.054;15.408;2022-12-13T01:20:57;97030;;;-5.1;70.9
23253;BME280;11795;47.054;15.408;2022-12-13T01:22:43;97030;;;-5.0;70.6
23253;BME280;11795;47.054;15.408;2022-12-13T01:24:43;97030;;;-5.1;70.6
23253;BME280;11795;47.054;15.408;2022-12-13T01:26:43;97040;;;-5.1;70.7
23253;BME280;11795;47.054;15.408;2022-12-13T01:28:43;97040;;;-5.2;70.9
23253;BME280;11795;47.054;15.408;2022-12-13T01:30:43;97040;;;-5.3;71.2
23253;BME280;11795;47.054;15.408;2022-12-13T01:32:43;97040;;;-5.2;71.0
23253;BME280;11795;47.054;15.408;2022-12-13T01:34:43;97040;;;-5.2;71.2
23253;BME280;11795;47.054;15.408;2022-12-13T01:36:45;97050;;;-5.2;71.3
23253;BME280;11795;47.054;15.408;2022-12-13T01:38:43;97040;;;-5.2;71.2
23253;BME280;11795;47.054;15.408;2022-12-13T01:40:45;97040;;;-5.2;71.3
23253;BME280;11795;47.054;15.408;2022-12-13T01:42:43;97040;;;-5.2;71.0
23253;BME280;11795;47.054;15.408;2022-12-13T01:44:58;97040;;;-5.3;71.3
23253;BME280;11795;47.054;15.408;2022-12-13T01:46:43;97040;;;-5.2;71.5
23253;BME280;11795;47.054;15.408;2022-12-13T01:48:46;97040;;;-5.2;71.5
23253;BME280;11795;47.054;15.408;2022-12-13T01:50:47;97030;;;-5.3;71.8
23253;BME280;11795;47.054;15.408;2022-12-13T01:52:44;97040;;;-5.2;71.7
23253;BME280;11795;47.054;15.408;2022-12-13T01:54:48;97040;;;-5.3;72.0
23253;BME280;11795;47.054;15.408;2022-12-13T01:56:47;97040;;;-5.2;72.0
23253;BME280;11795;47.054;15.408;2022-12-13T01:58:44;97040;;;-5.2;71.8
23253;BME280;11795;47.054;15.408;2022-12-13T02:00:44;97040;;;-5.3;72.0
23253;BME280;11795;47.054;15.408;2022-12-13T02:02:44;97040;;;-5.3;71.9
23253;BME280;11795;47.054;15.408;2022-12-13T02:04:47;97040;;;-5.3;72.0
23253;BME280;11795;47.054;15.408;2022-12-13T02:06:44;97040;;;-5.2;71.9
23253;BME280;11795;47.054;15.408;2022-12-13T02:08:44;97040;;;-5.3;71.8
23253;BME280;11795;47.054;15.408;2022-12-13T02:10:44;97050;;;-5.4;72.6
23253;BME280;11795;47.054;15.408;2022-12-13T02:12:43;97040;;;-5.3;72.2
23253;BME280;11795;47.054;15.408;2022-12-13T02:14:43;97040;;;-5.3;72.3
23253;BME280;11795;47.054;15.408;2022-12-13T02:16:51;97040;;;-5.2;72.4
23253;BME280;11795;47.054;15.408;2022-12-13T02:18:52;97040;;;-5.3;72.5
23253;BME280;11795;47.054;15.408;2022-12-13T02:20:56;97030;;;-5.4;72.7
23253;BME280;11795;47.054;15.408;2022-12-13T02:22:59;97040;;;-5.3;72.7
23253;BME280;11795;47.054;15.408;2022-12-13T02:24:52;97030;;;-5.4;72.9
23253;BME280;11795;47.054;15.408;2022-12-13T02:26:53;97040;;;-5.3;73.0
23253;BME280;11795;47.054;15.408;2022-12-13T02:28:55;97040;;;-5.3;73.0
23253;BME280;11795;47.054;15.408;2022-12-13T02:30:48;97040;;;-5.4;73.2
23253;BME280;11795;47.054;15.408;2022-12-13T02:32:51;97040;;;-5.3;72.9
23253;BME280;11795;47.054;15.408;2022-12-13T02:34:46;97040;;;-5.4;73.2
23253;BME280;11795;47.054;15.408;2022-12-13T02:36:50;97040;;;-5.3;73.2
23253;BME280;11795;47.054;15.408;2022-12-13T02:38:53;97040;;;-5.4;73.4
23253;BME280;11795;47.054;15.408;2022-12-13T02:40:46;97030;;;-5.4;73.7
23253;BME280;11795;47.054;15.408;2022-12-13T02:42:48;97030;;;-5.4;73.5
23253;BME280;11795;47.054;15.408;2022-12-13T02:44:49;97030;;;-5.4;73.7
23253;BME280;11795;47.054;15.408;2022-12-13T02:46:47;97030;;;-5.3;73.2
23253;BME280;11795;47.054;15.408;2022-12-13T02:48:44;97030;;;-5.4;73.1
23253;BME280;11795;47.054;15.408;2022-12-13T02:50:45;97040;;;-5.5;73.3
23253;BME280;11795;47.054;15.408;2022-12-13T02:52:45;97030;;;-5.5;73.3
23253;BME280;11795;47.054;15.408;2022-12-13T02:54:44;97030;;;-5.6;73.4
23253;BME280;11795;47.054;15.408;2022-12-13T02:56:51;97040;;;-5.5;73.6
23253;BME280;11795;47.054;15.408;2022-12-13T02:58:46;97030;;;-5.6;73.6
23253;BME280;11795;47.054;15.408;2022-12-13T03:00:52;97030;;;-5.6;73.8
23253;BME280;11795;47.054;15.408;2022-12-13T03:02:51;97030;;;-5.6;74.1
23253;BME280;11795;47.054;15.408;2022-12-13T03:04:59;97030;;;-5.7;74.4
23253;BME280;11795;47.054;15.408;2022-12-13T03:06:53;97030;;;-5.6;74.3
23253;BME280;11795;47.054;15.408;2022-12-13T03:08:52;97020;;;-5.6;74.1
23253;BME280;11795;47.054;15.408;2022-12-13T03:10:51;97030;;;-5.7;74.3
23253;BME280;11795;47.054;15.408;2022-12-13T03:12:56;97020;;;-5.7;74.1
23253;BME280;11795;47.054;15.408;2022-12-13T03:14:48;97020;;;-5.7;74.3
23253;BME280;11795;47.054;15.408;2022-12-13T03:16:45;97020;;;-5.6;74.3
23253;BME280;11795;47.054;15.408;2022-12-13T03:18:44;97020;;;-5.7;74.4
23253;BME280;11795;47.054;15.408;2022-12-13T03:20:45;97020;;;-5.7;74.6
23253;BME280;11795;47.054;15.408;2022-12-13T03:22:44;97030;;;-5.6;74.2
23253;BME280;11795;47.054;15.408;2022-12-13T03:24:44;97030;;;-5.7;74.4
23253;BME280;11795;47.054;15.408;2022-12-13T03:26:44;97030;;;-5.6;74.3
23253;BME280;11795;47.054;15.408;2022-12-13T03:28:43;97030;;;-5.8;74.6
23253;BME280;11795;47.054;15.408;2022-12-13T03:30:44;97030;;;-5.8;74.8
23253;BME280;11795;47.054;15.408;2022-12-13T03:32:43;97030;;;-5.8;75.1
23253;BME280;11795;47.054;15.408;2022-12-13T03:34:43;97030;;;-5.9;75.3
23253;BME280;11795;47.054;15.408;2022-12-13T03:36:44;97020;;;-5.8;75.2
23253;BME280;11795;47.054;15.408;2022-12-13T03:38:44;97030;;;-5.9;75.3
23253;BME280;11795;47.054;15.408;2022-12-13T03:40:44;97030;;;-5.9;75.4
23253;BME280;11795;47.054;15.408;2022-12-13T03:42:44;97020;;;-5.8;75.0
23253;BME280;11795;47.054;15.408;2022-12-13T03:44:43;97020;;;-5.9;75.2
23253;BME280;11795;47.054;15.408;2022-12-13T03:46:43;97020;;;-5.8;75.1
23253;BME280;11795;47.054;15.408;2022-12-13T03:48:43;97010;;;-5.9;74.9
23253;BME280;11795;47.054;15.408;2022-12-13T03:50:44;97020;;;-6.0;75.3
23253;BME280;11795;47.054;15.408;2022-12-13T03:52:43;97020;;;-6.0;75.3
23253;BME280;11795;47.054;15.408;2022-12-13T03:54:44;97020;;;-6.0;75.8
23253;BME280;11795;47.054;15.408;2022-12-13T03:56:43;97020;;;-5.9;75.4
23253;BME280;11795;47.054;15.408;2022-12-13T03:58:43;97020;;;-6.1;75.7
23253;BME280;11795;47.054;15.408;2022-12-13T04:00:44;97030;;;-6.1;75.8
23253;BME280;11795;47.054;15.408;2022-12-13T04:02:43;97030;;;-6.0;75.5
23253;BME280;11795;47.054;15.408;2022-12-13T04:04:43;97030;;;-6.1;75.5
23253;BME280;11795;47.054;15.408;2022-12-13T04:06:43;97030;;;-6.0;75.6
23253;BME280;11795;47.054;15.408;2022-12-13T04:08:43;97030;;;-6.1;75.7
23253;BME280;11795;47.054;15.408;2022-12-13T04:10:43;97030;;;-6.1;75.8
23253;BME280;11795;47.054;15.408;2022-12-13T04:12:53;97030;;;-6.0;75.8
23253;BME280;11795;47.054;15.408;2022-12-13T04:14:43;97040;;;-6.1;76.0
23253;BME280;11795;47.054;15.408;2022-12-13T04:16:44;97030;;;-6.0;76.1
23253;BME280;11795;47.054;15.408;2022-12-13T04:18:43;97030;;;-6.1;76.2
23253;BME280;11795;47.054;15.408;2022-12-13T04:20:44;97030;;;-6.1;76.2
23253;BME280;11795;47.054;15.408;2022-12-13T04:22:43;97030;;;-6.0;76.0
23253;BME280;11795;47.054;15.408;2022-12-13T04:24:44;97040;;;-6.1;76.2
23253;BME280;11795;47.054;15.408;2022-12-13T04:26:44;97030;;;-6.0;76.3
23253;BME280;11795;47.054;15.408;2022-12-13T04:28:44;97030;;;-6.0;76.4
23253;BME280;11795;47.054;15.408;2022-12-13T04:30:44;97030;;;-6.1;76.6
23253;BME280;11795;47.054;15.408;2022-12-13T04:32:43;97030;;;-6.0;76.4
23253;BME280;11795;47.054;15.408;2022-12-13T04:34:43;97020;;;-6.1;76.5
23253;BME280;11795;47.054;15.408;2022-12-13T04:36:44;97020;;;-6.0;76.4
23253;BME280;11795;47.054;15.408;2022-12-13T04:38:44;97020;;;-6.1;76.2
23253;BME280;11795;47.054;15.408;2022-12-13T04:40:43;97020;;;-6.1;76.2
23253;BME280;11795;47.054;15.408;2022-12-13T04:42:44;97030;;;-6.0;75.8
23253;BME280;11795;47.054;15.408;2022-12-13T04:44:44;97030;;;-6.1;75.9
23253;BME280;11795;47.054;15.408;2022-12-13T04:46:43;97030;;;-6.1;75.9
23253;BME280;11795;47.054;15.408;2022-12-13T04:48:44;97030;;;-6.2;75.9
23253;BME280;11795;47.054;15.408;2022-12-13T04:50:44;97030;;;-6.2;76.2
23253;BME280;11795;47.054;15.408;2022-12-13T04:52:44;97030;;;-6.2;76.0
23253;BME280;11795;47.054;15.408;2022-12-13T04:54:44;97030;;;-6.3;76.3
23253;BME280;11795;47.054;15.408;2022-12-13T04:56:43;97030;;;-6.2;76.5
23253;BME280;11795;47.054;15.408;2022-12-13T04:58:44;97020;;;-6.3;76.6
23253;BME280;11795;47.054;15.408;2022-12-13T05:00:44;97020;;;-6.4;76.9
23253;BME280;11795;47.054;15.408;2022-12-13T05:02:43;97020;;;-6.3;76.8
23253;BME280;11795;47.054;15.408;2022-12-13T05:04:44;97020;;;-6.3;76.8
23253;BME280;11795;47.054;15.408;2022-12-13T05:06:44;97020;;;-6.2;76.7
23253;BME280;11795;47.054;15.408;2022-12-13T05:08:44;97030;;;-6.2;76.5
23253;BME280;11795;47.054;15.408;2022-12-13T05:10:44;97030;;;-6.3;76.6
23253;BME280;11795;47.054;15.408;2022-12-13T05:12:44;97020;;;-6.2;76.5
23253;BME280;11795;47.054;15.408;2022-12-13T05:14:44;97030;;;-6.3;76.6
23253;BME280;11795;47.054;15.408;2022-12-13T05:16:44;97030;;;-6.2;76.6
23253;BME280;11795;47.054;15.408;2022-12-13T05:18:44;97020;;;-6.2;76.6
23253;BME280;11795;47.054;15.408;2022-12-13T05:20:44;97020;;;-6.3;76.8
23253;BME280;11795;47.054;15.408;2022-12-13T05:22:44;97020;;;-6.2;76.7
23253;BME280;11795;47.054;15.408;2022-12-13T05:24:44;97020;;;-6.2;76.8
23253;BME280;11795;47.054;15.408;2022-12-13T05:26:44;97020;;;-6.1;76.5
23253;BME280;11795;47.054;15.408;2022-12-13T05:28:44;97030;;;-6.2;76.5
23253;BME280;11795;47.054;15.408;2022-12-13T05:30:44;97030;;;-6.3;76.7
23253;BME280;11795;47.054;15.408;2022-12-13T05:32:44;97030;;;-6.3;76.9
23253;BME280;11795;47.054;15.408;2022-12-13T05:34:44;97030;;;-6.3;77.1
23253;BME280;11795;47.054;15.408;2022-12-13T05:36:44;97030;;;-6.3;77.1
23253;BME280;11795;47.054;15.408;2022-12-13T05:38:44;97030;;;-6.3;77.1
23253;BME280;11795;47.054;15.408;2022-12-13T05:40:44;97030;;;-6.3;77.0
23253;BME280;11795;47.054;15.408;2022-12-13T05:42:44;97030;;;-6.2;76.5
23253;BME280;11795;47.054;15.408;2022-12-13T05:44:44;97030;;;-6.3;76.5
23253;BME280;11795;47.054;15.408;2022-12-13T05:46:44;97020;;;-6.3;76.7
23253;BME280;11795;47.054;15.408;2022-12-13T05:48:44;97020;;;-6.4;76.7
23253;BME280;11795;47.054;15.408;2022-12-13T05:50:44;97020;;;-6.4;76.9
23253;BME280;11795;47.054;15.408;2022-12-13T05:52:44;97020;;;-6.3;76.8
23253;BME280;11795;47.054;15.408;2022-12-13T05:54:44;97010;;;-6.4;76.9
23253;BME280;11795;47.054;15.408;2022-12-13T05:56:44;97010;;;-6.3;77.0
23253;BME280;11795;47.054;15.408;2022-12-13T05:58:44;97020;;;-6.3;77.1
23253;BME280;11795;47.054;15.408;2022-12-13T06:00:44;97020;;;-6.4;77.4
23253;BME280;11795;47.054;15.408;2022-12-13T06:02:44;97010;;;-6.3;77.4
23253;BME280;11795;47.054;15.408;2022-12-13T06:04:44;97010;;;-6.3;77.6
23253;BME280;11795;47.054;15.408;2022-12-13T06:06:44;97010;;;-6.2;77.8
23253;BME280;11795;47.054;15.408;2022-12-13T06:08:44;97010;;;-6.3;77.8
23253;BME280;11795;47.054;15.408;2022-12-13T06:10:44;97010;;;-6.3;77.8
23253;BME280;11795;47.054;15.408;2022-12-13T06:12:44;97010;;;-6.3;77.7
23253;BME280;11795;47.054;15.408;2022-12-13T06:14:44;97010;;;-6.4;77.9
23253;BME280;11795;47.054;15.408;2022-12-13T06:16:44;97010;;;-6.3;78.1
23253;BME280;11795;47.054;15.408;2022-12-13T06:18:44;97010;;;-6.3;78.0
23253;BME280;11795;47.054;15.408;2022-12-13T06:20:44;97020;;;-6.4;78.2
23253;BME280;11795;47.054;15.408;2022-12-13T06:22:44;97020;;;-6.3;78.0
23253;BME280;11795;47.054;15.408;2022-12-13T06:24:44;97010;;;-6.3;77.9
23253;BME280;11795;47.054;15.408;2022-12-13T06:26:44;97010;;;-6.2;77.8
23253;BME280;11795;47.054;15.408;2022-12-13T06:28:44;97010;;;-6.3;77.8
23253;BME280;11795;47.054;15.408;2022-12-13T06:30:44;97010;;;-6.2;77.5
23253;BME280;11795;47.054;15.408;2022-12-13T06:32:47;97020;;;-6.2;77.4
23253;BME280;11795;47.054;15.408;2022-12-13T06:34:44;97010;;;-6.4;77.6
23253;BME280;11795;47.054;15.408;2022-12-13T06:36:44;97010;;;-6.3;77.8
23253;BME280;11795;47.054;15.408;2022-12-13T06:38:44;97010;;;-6.4;77.9
23253;BME280;11795;47.054;15.408;2022-12-13T06:40:44;97010;;;-6.5;78.4
23253;BME280;11795;47.054;15.408;2022-12-13T06:42:44;97010;;;-6.5;78.5
23253;BME280;11795;47.054;15.408;2022-12-13T06:44:44;97010;;;-6.5;78.9
23253;BME280;11795;47.054;15.408;2022-12-13T06:46:44;97020;;;-6.4;79.1
23253;BME280;11795;47.054;15.408;2022-12-13T06:48:44;97020;;;-6.4;79.2
23253;BME280;11795;47.054;15.408;2022-12-13T06:50:44;97020;;;-6.4;79.2
23253;BME280;11795;47.054;15.408;2022-12-13T06:52:44;97020;;;-6.3;79.0
23253;BME280;11795;47.054;15.408;2022-12-13T06:54:44;97010;;;-6.4;79.2
23253;BME280;11795;47.054;15.408;2022-12-13T06:56:44;97010;;;-6.3;79.4
23253;BME280;11795;47.054;15.408;2022-12-13T06:58:44;97020;;;-6.2;79.1
23253;BME280;11795;47.054;15.408;2022-12-13T07:00:44;97020;;;-6.3;79.2
23253;BME280;11795;47.054;15.408;2022-12-13T07:02:44;97020;;;-6.2;79.4
23253;BME280;11795;47.054;15.408;2022-12-13T07:04:44;97020;;;-6.3;79.7
23253;BME280;11795;47.054;15.408;2022-12-13T07:06:44;97020;;;-6.2;79.6
23253;BME280;11795;47.054;15.408;2022-12-13T07:08:47;97020;;;-6.2;79.4
23253;BME280;11795;47.054;15.408;2022-12-13T07:10:44;97020;;;-6.2;79.5
23253;BME280;11795;47.054;15.408;2022-12-13T07:12:44;97020;;;-6.1;79.1
23253;BME280;11795;47.054;15.408;2022-12-13T07:14:44;97020;;;-6.1;79.2
23253;BME280;11795;47.054;15.408;2022-12-13T07:16:44;97020;;;-6.1;79.1
23253;BME280;11795;47.054;15.408;2022-12-13T07:18:44;97020;;;-6.1;79.1
23253;BME280;11795;47.054;15.408;2022-12-13T07:20:44;97020;;;-6.1;79.1
23253;BME280;11795;47.054;15.408;2022-12-13T07:22:44;97020;;;-6.0;78.9
23253;BME280;11795;47.054;15.408;2022-12-13T07:24:44;97030;;;-5.9;79.0
23253;BME280;11795;47.054;15.408;2022-12-13T07:26:44;97030;;;-5.8;78.8
23253;BME280;11795;47.054;15.408;2022-12-13T07:28:44;97030;;;-5.8;78.5
23253;BME280;11795;47.054;15.408;2022-12-13T07:30:46;97030;;;-5.7;78.2
23253;BME280;11795;47.054;15.408;2022-12-13T07:32:44;97040;;;-5.5;77.5
23253;BME280;11795;47.054;15.408;2022-12-13T07:34:44;97030;;;-5.6;77.4
23253;BME280;11795;47.054;15.408;2022-12-13T07:36:44;97040;;;-5.6;77.6
23253;BME280;11795;47.054;15.408;2022-12-13T07:38:49;97040;;;-5.5;77.3
23253;BME280;11795;47.054;15.408;2022-12-13T07:40:44;97040;;;-5.5;77.1
23253;BME280;11795;47.054;15.408;2022-12-13T07:42:48;97040;;;-5.4;77.0
23253;BME280;11795;47.054;15.408;2022-12-13T07:44:44;97040;;;-5.4;76.8
23253;BME280;11795;47.054;15.408;2022-12-13T07:46:44;97030;;;-5.4;76.7
23253;BME280;11795;47.054;15.408;2022-12-13T07:48:44;97030;;;-5.4;76.8
23253;BME280;11795;47.054;15.408;2022-12-13T07:50:44;97030;;;-5.4;76.9
23253;BME280;11795;47.054;15.408;2022-12-13T07:52:44;97030;;;-5.3;76.7
23253;BME280;11795;47.054;15.408;2022-12-13T07:54:44;97030;;;-5.2;76.8
23253;BME280;11795;47.054;15.408;2022-12-13T07:56:44;97030;;;-5.1;76.6
23253;BME280;11795;47.054;15.408;2022-12-13T07:58:45;97020;;;-5.0;75.4
23253;BME280;11795;47.054;15.408;2022-12-13T08:00:45;97030;;;-5.1;75.7
23253;BME280;11795;47.054;15.408;2022-12-13T08:02:44;97030;;;-5.0;75.9
23253;BME280;11795;47.054;15.408;2022-12-13T08:04:44;97030;;;-5.0;75.7
23253;BME280;11795;47.054;15.408;2022-12-13T08:06:44;97030;;;-4.8;75.2
23253;BME280;11795;47.054;15.408;2022-12-13T08:08:44;97040;;;-4.8;74.3
23253;BME280;11795;47.054;15.408;2022-12-13T08:10:44;97040;;;-4.9;74.4
23253;BME280;11795;47.054;15.408;2022-12-13T08:12:44;97040;;;-4.8;74.5
23253;BME280;11795;47.054;15.408;2022-12-13T08:14:44;97040;;;-4.8;74.6
23253;BME280;11795;47.054;15.408;2022-12-13T08:16:45;97040;;;-4.7;74.7
23253;BME280;11795;47.054;15.408;2022-12-13T08:18:44;97040;;;-4.7;74.9
23253;BME280;11795;47.054;15.408;2022-12-13T08:20:44;97040;;;-4.7;74.6
23253;BME280;11795;47.054;15.408;2022-12-13T08:22:44;97040;;;-4.6;74.4
23253;BME280;11795;47.054;15.408;2022-12-13T08:24:44;97040;;;-4.6;74.6
23253;BME280;11795;47.054;15.408;2022-12-13T08:26:44;97040;;;-4.4;74.6
23253;BME280;11795;47.054;15.408;2022-12-13T08:28:44;97040;;;-4.4;74.3
23253;BME280;11795;47.054;15.408;2022-12-13T08:30:44;97030;;;-4.4;74.3
23253;BME280;11795;47.054;15.408;2022-12-13T08:32:44;97030;;;-4.3;73.7
23253;BME280;11795;47.054;15.408;2022-12-13T08:34:45;97030;;;-4.2;73.9
23253;BME280;11795;47.054;15.408;2022-12-13T08:36:44;97030;;;-4.1;73.5
23253;BME280;11795;47.054;15.408;2022-12-13T08:38:44;97030;;;-4.1;73.4
23253;BME280;11795;47.054;15.408;2022-12-13T08:40:44;97030;;;-4.1;73.4
23253;BME280;11795;47.054;15.408;2022-12-13T08:42:44;97030;;;-3.9;72.9
23253;BME280;11795;47.054;15.408;2022-12-13T08:44:45;97030;;;-3.9;72.6
23253;BME280;11795;47.054;15.408;2022-12-13T08:46:44;97030;;;-3.8;72.7
23253;BME280;11795;47.054;15.408;2022-12-13T08:48:44;97040;;;-3.8;72.6
23253;BME280;11795;47.054;15.408;2022-12-13T08:50:44;97030;;;-3.8;72.6
23253;BME280;11795;47.054;15.408;2022-12-13T08:52:44;97040;;;-3.6;71.6
23253;BME280;11795;47.054;15.408;2022-12-13T08:54:44;97030;;;-3.6;71.5
23253;BME280;11795;47.054;15.408;2022-12-13T08:56:44;97040;;;-3.5;71.3
23253;BME280;11795;47.054;15.408;2022-12-13T08:58:48;97040;;;-3.5;71.2
23253;BME280;11795;47.054;15.408;2022-12-13T09:00:45;97050;;;-3.5;71.2
23253;BME280;11795;47.054;15.408;2022-12-13T09:02:45;97050;;;-3.3;70.3
23253;BME280;11795;47.054;15.408;2022-12-13T09:04:44;97050;;;-3.3;70.6
23253;BME280;11795;47.054;15.408;2022-12-13T09:06:44;97040;;;-3.0;70.5
23253;BME280;11795;47.054;15.408;2022-12-13T09:08:44;97040;;;-3.0;70.1
23253;BME280;11795;47.054;15.408;2022-12-13T09:10:45;97040;;;-2.7;69.7
23253;BME280;11795;47.054;15.408;2022-12-13T09:12:44;97040;;;-2.4;68.5
23253;BME280;11795;47.054;15.408;2022-12-13T09:14:44;97030;;;-2.0;66.8
23253;BME280;11795;47.054;15.408;2022-12-13T09:16:44;97020;;;-1.4;65.1
23253;BME280;11795;47.054;15.408;2022-12-13T09:18:44;97020;;;-0.7;63.3
23253;BME280;11795;47.054;15.408;2022-12-13T09:20:44;97020;;;0.1;61.0
23253;BME280;11795;47.054;15.408;2022-12-13T09:22:44;97010;;;1.0;58.5
23253;BME280;11795;47.054;15.408;2022-12-13T09:24:44;97000;;;1.5;56.2
23253;BME280;11795;47.054;15.408;2022-12-13T09:26:44;97000;;;2.0;53.8
23253;BME280;11795;47.054;15.408;2022-12-13T09:28:44;97000;;;2.1;54.3
23253;BME280;11795;47.054;15.408;2022-12-13T09:30:44;96990;;;2.2;53.7
23253;BME280;11795;47.054;15.408;2022-12-13T09:32:48;96990;;;2.2;50.9
23253;BME280;11795;47.054;15.408;2022-12-13T09:34:45;96990;;;2.0;52.4
23253;BME280;11795;47.054;15.408;2022-12-13T09:36:44;96980;;;1.9;52.4
23253;BME280;11795;47.054;15.408;2022-12-13T09:38:44;96980;;;2.1;51.2
23253;BME280;11795;47.054;15.408;2022-12-13T09:40:47;96980;;;2.4;50.0
23253;BME280;11795;47.054;15.408;2022-12-13T09:42:47;96970;;;2.6;50.0
23253;BME280;11795;47.054;15.408;2022-12-13T09:44:48;96970;;;2.5;49.7
23253;BME280;11795;47.054;15.408;2022-12-13T09:46:45;96970;;;2.7;49.6
23253;BME280;11795;47.054;15.408;2022-12-13T09:48:44;96980;;;2.9;48.6
23253;BME280;11795;47.054;15.408;2022-12-13T09:50:44;96970;;;3.0;48.2
23253;BME280;11795;47.054;15.408;2022-12-13T09:52:45;96970;;;3.2;46.8
23253;BME280;11795;47.054;15.408;2022-12-13T09:54:44;96970;;;3.2;46.3
23253;BME280;11795;47.054;15.408;2022-12-13T09:56:51;96970;;;3.3;45.9
23253;BME280;11795;47.054;15.408;2022-12-13T09:58:47;96960;;;3.0;46.4
23253;BME280;11795;47.054;15.408;2022-12-13T10:00:46;96970;;;3.0;47.0
23253;BME280;11795;47.054;15.408;2022-12-13T10:02:46;96960;;;3.2;46.5
23253;BME280;11795;47.054;15.408;2022-12-13T10:04:44;96960;;;3.0;46.7
23253;BME280;11795;47.054;15.408;2022-12-13T10:06:44;96960;;;3.1;46.9
23253;BME280;11795;47.054;15.408;2022-12-13T10:08:46;96950;;;2.9;46.4
23253;BME280;11795;47.054;15.408;2022-12-13T10:10:44;96950;;;2.9;47.2
23253;BME280;11795;47.054;15.408;2022-12-13T10:12:45;96950;;;2.8;46.1
23253;BME280;11795;47.054;15.408;2022-12-13T10:14:48;96950;;;2.5;46.5
23253;BME280;11795;47.054;15.408;2022-12-13T10:16:46;96950;;;2.5;45.4
23253;BME280;11795;47.054;15.408;2022-12-13T10:18:44;96950;;;2.4;46.3
23253;BME280;11795;47.054;15.408;2022-12-13T10:20:45;96950;;;2.3;45.0
23253;BME280;11795;47.054;15.408;2022-12-13T10:22:44;96950;;;2.2;45.7
23253;BME280;11795;47.054;15.408;2022-12-13T10:24:50;96950;;;2.3;46.9
23253;BME280;11795;47.054;15.408;2022-12-13T10:26:44;96940;;;2.7;46.5
23253;BME280;11795;47.054;15.408;2022-12-13T10:28:44;96940;;;2.7;46.0
23253;BME280;11795;47.054;15.408;2022-12-13T10:30:44;96930;;;2.7;46.1
23253;BME280;11795;47.054;15.408;2022-12-13T10:32:51;96930;;;2.9;45.5
23253;BME280;11795;47.054;15.408;2022-12-13T10:34:44;96930;;;2.9;45.4
23253;BME280;11795;47.054;15.408;2022-12-13T10:36:44;96940;;;3.0;45.1
23253;BME280;11795;47.054;15.408;2022-12-13T10:38:45;96940;;;2.8;44.5
23253;BME280;11795;47.054;15.408;2022-12-13T10:40:44;96930;;;2.7;44.9
23253;BME280;11795;47.054;15.408;2022-12-13T10:42:44;96930;;;2.6;45.5
23253;BME280;11795;47.054;15.408;2022-12-13T10:44:45;96930;;;2.5;44.4
23253;BME280;11795;47.054;15.408;2022-12-13T10:46:50;96920;;;2.7;45.8
23253;BME280;11795;47.054;15.408;2022-12-13T10:48:46;96920;;;2.7;44.7
23253;BME280;11795;47.054;15.408;2022-12-13T10:50:54;96920;;;2.3;44.8
23253;BME280;11795;47.054;15.408;2022-12-13T10:52:46;96910;;;2.4;46.2
23253;BME280;11795;47.054;15.408;2022-12-13T10:54:47;96910;;;2.5;45.7
23253;BME280;11795;47.054;15.408;2022-12-13T10:56:46;96910;;;2.9;46.1
23253;BME280;11795;47.054;15.408;2022-12-13T10:58:46;96910;;;3.0;45.0
23253;BME280;11795;47.054;15.408;2022-12-13T11:00:46;96910;;;3.1;44.8
23253;BME280;11795;47.054;15.408;2022-12-13T11:02:53;96910;;;3.3;44.2
23253;BME280;11795;47.054;15.408;2022-12-13T11:04:44;96900;;;3.2;43.5
23253;BME280;11795;47.054;15.408;2022-12-13T11:06:46;96900;;;3.3;43.9
23253;BME280;11795;47.054;15.408;2022-12-13T11:08:44;96900;;;3.2;43.6
23253;BME280;11795;47.054;15.408;2022-12-13T11:10:45;96900;;;3.2;43.7
23253;BME280;11795;47.054;15.408;2022-12-13T11:12:45;96900;;;3.1;43.6